Time;durP1;ratioP1;P1;durP2;ratioP2;P2;SDS_P1;SDS_P2;PMS_P1;PMS_P2;Temp;Humidity;BMP_temperature;BMP_pressure;BME280_temperature;BME280_humidity;BME280_pressure;Samples;Min_cycle;Max_cycle;Signal;HPM_P1;HPM_P2
2022/11/20 00:01:20;;;;;;;17.73;11.68;;;;;;;;;;5013010;28;92440;-66
2022/11/20 00:03:46;;;;;;;15.10;10.75;;;;;;;;;;5014080;28;94980;-66
2022/11/20 00:06:13;;;;;;;18.70;11.60;;;;;;;;;;5011014;28;96141;-67
2022/11/20 00:08:40;;;;;;;19.50;10.95;;;;;;;;;;5013624;28;92711;-67
2022/11/20 00:11:10;;;;;;;19.08;12.00;;;;;;;;;;5012270;28;93135;-67
2022/11/20 00:13:42;;;;;;;17.77;11.32;;;;;;;;;;5010897;28;93376;-66
2022/11/20 00:16:09;;;;;;;24.98;11.98;;;;;;;;;;5013360;28;92433;-67
2022/11/20 00:18:35;;;;;;;19.45;11.52;;;;;;;;;;5012806;28;96409;-66
2022/11/20 00:21:05;;;;;;;21.67;11.98;;;;;;;;;;5015657;28;93334;-66
2022/11/20 00:23:32;;;;;;;20.60;12.53;;;;;;;;;;5012862;28;93206;-66
2022/11/20 00:26:17;;;;;;;20.50;12.23;;;;;;;;;;5012789;28;93485;-66
2022/11/20 00:28:48;;;;;;;20.05;11.95;;;;;;;;;;5010064;28;92483;-66
2022/11/20 00:31:15;;;;;;;21.27;13.02;;;;;;;;;;5011725;28;95377;-66
2022/11/20 00:33:42;;;;;;;20.02;12.88;;;;;;;;;;5012189;28;94428;-67
2022/11/20 00:36:15;;;;;;;21.60;12.18;;;;;;;;;;5012385;28;92629;-67
2022/11/20 00:38:41;;;;;;;20.83;12.50;;;;;;;;;;5011156;28;93807;-66
2022/11/20 00:41:09;;;;;;;20.38;12.65;;;;;;;;;;5015028;27;93920;-67
2022/11/20 00:43:36;;;;;;;19.48;12.20;;;;;;;;;;5021285;27;92451;-66
2022/11/20 00:46:06;;;;;;;42.08;12.50;;;;;;;;;;5010974;28;93588;-67
2022/11/20 00:48:33;;;;;;;17.85;11.45;;;;;;;;;;4997023;28;91746;-66
2022/11/20 00:50:59;;;;;;;19.50;12.48;;;;;;;;;;5013251;28;93544;-67
2022/11/20 00:53:25;;;;;;;22.63;12.48;;;;;;;;;;5013160;28;93436;-67
2022/11/20 00:56:02;;;;;;;19.95;12.30;;;;;;;;;;5012013;28;95649;-67
2022/11/20 00:58:29;;;;;;;20.80;12.45;;;;;;;;;;5013349;28;95646;-67
2022/11/20 01:01:11;;;;;;;17.42;11.15;;;;;;;;;;5011198;28;93943;-67
2022/11/20 01:03:39;;;;;;;21.13;11.05;;;;;;;;;;5010510;28;92588;-67
2022/11/20 01:06:07;;;;;;;21.65;11.80;;;;;;;;;;5014602;28;93597;-68
2022/11/20 01:08:34;;;;;;;20.70;11.48;;;;;;;;;;5012697;28;92621;-67
2022/11/20 01:11:02;;;;;;;20.48;11.73;;;;;;;;;;5011736;28;93853;-67
2022/11/20 01:13:37;;;;;;;20.77;11.38;;;;;;;;;;5012937;28;92764;-67
2022/11/20 01:16:03;;;;;;;18.45;11.77;;;;;;;;;;5007493;28;92388;-67
2022/11/20 01:18:31;;;;;;;20.65;12.07;;;;;;;;;;5000499;28;94467;-67
2022/11/20 01:21:02;;;;;;;22.85;11.68;;;;;;;;;;5010034;28;96292;-67
2022/11/20 01:23:32;;;;;;;20.23;12.48;;;;;;;;;;5010315;28;92434;-67
2022/11/20 01:25:59;;;;;;;21.17;11.77;;;;;;;;;;5011614;28;93457;-67
2022/11/20 01:28:25;;;;;;;19.88;11.48;;;;;;;;;;5016670;28;93357;-67
2022/11/20 01:30:52;;;;;;;20.33;11.60;;;;;;;;;;5026553;27;92686;-66
2022/11/20 01:33:18;;;;;;;16.83;11.43;;;;;;;;;;5017370;27;93803;-67
2022/11/20 01:35:44;;;;;;;20.35;12.07;;;;;;;;;;5019833;28;92432;-67
2022/11/20 01:38:10;;;;;;;24.25;12.98;;;;;;;;;;5034164;28;93472;-67
2022/11/20 01:40:37;;;;;;;21.00;13.23;;;;;;;;;;5021845;27;93404;-67
2022/11/20 01:43:22;;;;;;;20.73;12.05;;;;;;;;;;5019315;27;92470;-66
2022/11/20 01:46:00;;;;;;;18.98;12.38;;;;;;;;;;5021322;28;96285;-67
2022/11/20 01:48:29;;;;;;;20.20;13.00;;;;;;;;;;5016260;28;94333;-67
2022/11/20 01:50:57;;;;;;;20.27;11.68;;;;;;;;;;5015811;28;96809;-67
2022/11/20 01:53:25;;;;;;;21.60;11.85;;;;;;;;;;5013767;28;93899;-66
2022/11/20 01:55:53;;;;;;;20.25;11.45;;;;;;;;;;5013918;28;92505;-67
2022/11/20 01:58:22;;;;;;;24.15;13.00;;;;;;;;;;5015636;28;93269;-67
2022/11/20 02:00:48;;;;;;;20.50;12.35;;;;;;;;;;5014394;28;93412;-66
2022/11/20 02:03:18;;;;;;;19.60;11.52;;;;;;;;;;5015632;28;92210;-66
2022/11/20 02:05:48;;;;;;;17.60;11.80;;;;;;;;;;5015980;28;92683;-67
2022/11/20 02:08:15;;;;;;;24.35;12.00;;;;;;;;;;5014919;28;93915;-67
2022/11/20 02:10:41;;;;;;;19.73;12.80;;;;;;;;;;5015973;28;94906;-66
2022/11/20 02:15:53;;;;;;;23.45;12.50;;;;;;;;;;5015769;28;92670;-67
2022/11/20 02:18:20;;;;;;;21.02;12.23;;;;;;;;;;5013432;28;94176;-67
2022/11/20 02:20:47;;;;;;;20.60;12.60;;;;;;;;;;5016774;28;93617;-67
2022/11/20 02:23:32;;;;;;;18.85;12.05;;;;;;;;;;5012946;28;92472;-66
2022/11/20 02:25:59;;;;;;;17.95;11.43;;;;;;;;;;5013879;28;92491;-67
2022/11/20 02:28:27;;;;;;;18.65;11.95;;;;;;;;;;5016197;28;93517;-67
2022/11/20 02:30:53;;;;;;;29.27;12.57;;;;;;;;;;5023324;27;92416;-67
2022/11/20 02:33:19;;;;;;;20.75;12.13;;;;;;;;;;5031942;28;93299;-67
2022/11/20 02:35:46;;;;;;;24.13;11.60;;;;;;;;;;5014443;27;94909;-67
2022/11/20 02:38:13;;;;;;;20.88;12.68;;;;;;;;;;5004779;28;96259;-67
2022/11/20 02:40:39;;;;;;;22.70;12.43;;;;;;;;;;5013157;27;93520;-66
2022/11/20 02:43:05;;;;;;;20.27;12.05;;;;;;;;;;5022048;28;92407;-67
2022/11/20 02:45:32;;;;;;;26.88;12.52;;;;;;;;;;5021812;27;94556;-67
2022/11/20 02:47:58;;;;;;;20.17;11.75;;;;;;;;;;5020936;27;93526;-66
2022/11/20 02:50:24;;;;;;;26.00;11.80;;;;;;;;;;5012922;28;93750;-67
2022/11/20 02:52:51;;;;;;;19.48;11.73;;;;;;;;;;5014185;28;93181;-66
2022/11/20 02:55:17;;;;;;;19.52;11.52;;;;;;;;;;5019510;28;93549;-67
2022/11/20 02:57:43;;;;;;;19.58;11.30;;;;;;;;;;5013643;28;93173;-66
2022/11/20 03:00:10;;;;;;;22.60;12.82;;;;;;;;;;5011008;28;95840;-66
2022/11/20 03:02:36;;;;;;;21.75;11.73;;;;;;;;;;5014892;28;92441;-66
2022/11/20 03:05:03;;;;;;;19.40;12.60;;;;;;;;;;5014987;28;93281;-67
2022/11/20 03:07:29;;;;;;;21.98;13.02;;;;;;;;;;5014392;28;94582;-67
2022/11/20 03:09:55;;;;;;;19.30;11.43;;;;;;;;;;5014754;28;93350;-66
2022/11/20 03:12:22;;;;;;;22.52;11.45;;;;;;;;;;5014925;28;93243;-66
2022/11/20 03:14:48;;;;;;;19.00;11.68;;;;;;;;;;5014821;28;93253;-67
2022/11/20 03:17:18;;;;;;;19.83;12.18;;;;;;;;;;5019947;28;91674;-67
2022/11/20 03:19:44;;;;;;;20.73;12.77;;;;;;;;;;5010811;28;93522;-66
2022/11/20 03:22:11;;;;;;;20.23;12.02;;;;;;;;;;5014754;28;92496;-67
2022/11/20 03:24:37;;;;;;;21.92;13.40;;;;;;;;;;5011360;28;94866;-66
2022/11/20 03:27:03;;;;;;;19.67;12.18;;;;;;;;;;5014629;28;93230;-66
2022/11/20 03:29:30;;;;;;;23.83;13.45;;;;;;;;;;5013735;28;92376;-67
2022/11/20 03:31:56;;;;;;;23.10;12.88;;;;;;;;;;5013867;28;94067;-67
2022/11/20 03:34:23;;;;;;;20.70;11.35;;;;;;;;;;5018689;28;94804;-66
2022/11/20 03:36:49;;;;;;;20.00;11.80;;;;;;;;;;5017045;28;94114;-66
2022/11/20 03:39:15;;;;;;;20.70;12.32;;;;;;;;;;5033087;28;93115;-67
2022/11/20 03:41:42;;;;;;;21.25;13.07;;;;;;;;;;5018625;28;91877;-66
2022/11/20 03:44:09;;;;;;;19.55;12.70;;;;;;;;;;5010922;28;92725;-68
2022/11/20 03:46:36;;;;;;;19.20;11.68;;;;;;;;;;5015100;28;93529;-66
2022/11/20 03:49:03;;;;;;;18.85;12.45;;;;;;;;;;5012889;28;95561;-66
2022/11/20 03:51:30;;;;;;;20.92;12.40;;;;;;;;;;5013218;28;95892;-67
2022/11/20 03:53:58;;;;;;;21.30;12.63;;;;;;;;;;5012718;28;93487;-66
2022/11/20 03:56:25;;;;;;;20.88;12.05;;;;;;;;;;5013646;28;92445;-66
2022/11/20 03:58:52;;;;;;;22.98;12.70;;;;;;;;;;5015754;28;93503;-66
2022/11/20 04:01:20;;;;;;;21.10;12.32;;;;;;;;;;5010882;28;92482;-67
2022/11/20 04:03:47;;;;;;;20.27;12.05;;;;;;;;;;5018783;28;93943;-66
2022/11/20 04:06:19;;;;;;;27.15;12.85;;;;;;;;;;5014110;28;92662;-66
2022/11/20 04:08:45;;;;;;;21.90;13.02;;;;;;;;;;5015946;28;92677;-67
2022/11/20 04:11:20;;;;;;;27.02;12.80;;;;;;;;;;5019190;27;93236;-66
2022/11/20 04:13:47;;;;;;;22.60;12.07;;;;;;;;;;5012970;28;96890;-67
2022/11/20 04:16:14;;;;;;;22.35;12.05;;;;;;;;;;5013707;28;92436;-67
2022/11/20 04:18:40;;;;;;;21.85;12.95;;;;;;;;;;5011785;28;93610;-67
2022/11/20 04:21:07;;;;;;;21.30;12.30;;;;;;;;;;5011595;28;93541;-67
2022/11/20 04:23:33;;;;;;;18.92;12.07;;;;;;;;;;5013534;28;93370;-66
2022/11/20 04:26:02;;;;;;;17.73;11.88;;;;;;;;;;5013155;28;93271;-66
2022/11/20 04:28:29;;;;;;;22.70;12.35;;;;;;;;;;5015236;28;94061;-67
2022/11/20 04:31:01;;;;;;;18.65;11.10;;;;;;;;;;5020898;28;93512;-67
2022/11/20 04:33:27;;;;;;;19.83;11.77;;;;;;;;;;5011357;28;94082;-67
2022/11/20 04:36:11;;;;;;;19.90;12.05;;;;;;;;;;5012950;28;92521;-66
2022/11/20 04:38:38;;;;;;;19.10;12.02;;;;;;;;;;5011005;28;94848;-66
2022/11/20 04:41:05;;;;;;;19.60;12.75;;;;;;;;;;5013825;28;93667;-66
2022/11/20 04:43:32;;;;;;;21.60;12.00;;;;;;;;;;5031869;28;92461;-67
2022/11/20 04:45:59;;;;;;;23.13;12.77;;;;;;;;;;5009003;27;93820;-67
2022/11/20 04:48:26;;;;;;;20.00;12.15;;;;;;;;;;5013516;28;92673;-67
2022/11/20 04:50:52;;;;;;;23.10;12.98;;;;;;;;;;5010920;28;93333;-67
2022/11/20 04:53:19;;;;;;;18.13;12.10;;;;;;;;;;5010450;28;93703;-68
2022/11/20 04:55:45;;;;;;;20.80;12.65;;;;;;;;;;5012158;28;91758;-66
2022/11/20 04:58:12;;;;;;;19.48;11.75;;;;;;;;;;5015160;28;92563;-66
2022/11/20 05:00:38;;;;;;;24.55;12.95;;;;;;;;;;5016358;28;93266;-66
2022/11/20 05:03:04;;;;;;;22.83;12.48;;;;;;;;;;5010549;28;94881;-66
2022/11/20 05:05:31;;;;;;;21.02;12.00;;;;;;;;;;5022494;28;95539;-67
2022/11/20 05:07:57;;;;;;;18.77;11.77;;;;;;;;;;5011674;28;93566;-66
2022/11/20 05:10:24;;;;;;;22.02;12.55;;;;;;;;;;5024845;28;93119;-66
2022/11/20 05:12:51;;;;;;;19.50;12.05;;;;;;;;;;5010649;27;93372;-66
2022/11/20 05:15:17;;;;;;;23.35;12.10;;;;;;;;;;5015695;28;93265;-67
2022/11/20 05:17:50;;;;;;;20.65;13.27;;;;;;;;;;5019555;28;94676;-66
2022/11/20 05:20:16;;;;;;;21.05;11.43;;;;;;;;;;5013980;28;92681;-66
2022/11/20 05:22:43;;;;;;;21.02;12.05;;;;;;;;;;5026037;28;92478;-67
2022/11/20 05:25:10;;;;;;;19.13;11.27;;;;;;;;;;5018412;28;94499;-67
2022/11/20 05:27:36;;;;;;;20.23;12.63;;;;;;;;;;5017629;28;95823;-66
2022/11/20 05:30:06;;;;;;;22.50;11.77;;;;;;;;;;5022953;28;94539;-66
2022/11/20 05:32:32;;;;;;;19.60;11.67;;;;;;;;;;5026276;27;93399;-66
2022/11/20 05:34:59;;;;;;;20.58;12.38;;;;;;;;;;5022835;27;92750;-67
2022/11/20 05:37:25;;;;;;;23.13;12.43;;;;;;;;;;5013030;28;93582;-66
2022/11/20 05:39:51;;;;;;;18.35;11.60;;;;;;;;;;5020681;28;93994;-66
2022/11/20 05:42:30;;;;;;;23.15;12.55;;;;;;;;;;5013221;28;94229;-66
2022/11/20 05:44:57;;;;;;;20.63;12.13;;;;;;;;;;5015396;28;93673;-67
2022/11/20 05:47:23;;;;;;;20.67;11.18;;;;;;;;;;5024658;28;93810;-66
2022/11/20 05:49:49;;;;;;;21.50;12.02;;;;;;;;;;5011734;28;92814;-66
2022/11/20 05:52:16;;;;;;;21.08;12.43;;;;;;;;;;5011004;28;95814;-67
2022/11/20 05:54:42;;;;;;;25.58;11.88;;;;;;;;;;5012491;28;92556;-66
2022/11/20 05:57:08;;;;;;;19.90;11.57;;;;;;;;;;5012817;28;93652;-66
2022/11/20 05:59:34;;;;;;;25.20;12.23;;;;;;;;;;5012061;28;93352;-66
2022/11/20 06:02:01;;;;;;;21.65;11.43;;;;;;;;;;5012209;28;92431;-66
2022/11/20 06:04:27;;;;;;;23.63;13.02;;;;;;;;;;5012341;28;93708;-66
2022/11/20 06:06:53;;;;;;;20.48;12.32;;;;;;;;;;5012308;28;93457;-66
2022/11/20 06:09:20;;;;;;;18.20;11.52;;;;;;;;;;5014376;28;91830;-66
2022/11/20 06:11:46;;;;;;;21.77;12.13;;;;;;;;;;5012246;28;93621;-66
2022/11/20 06:14:13;;;;;;;19.92;12.00;;;;;;;;;;5011511;28;94229;-66
2022/11/20 06:16:39;;;;;;;22.10;12.20;;;;;;;;;;5009010;28;95254;-66
2022/11/20 06:19:05;;;;;;;21.35;11.18;;;;;;;;;;5020281;28;94348;-66
2022/11/20 06:21:31;;;;;;;20.40;11.57;;;;;;;;;;5022818;27;92548;-66
2022/11/20 06:23:58;;;;;;;20.75;12.18;;;;;;;;;;5029860;28;93217;-67
2022/11/20 06:26:25;;;;;;;22.08;12.65;;;;;;;;;;5026651;28;93397;-66
2022/11/20 06:28:52;;;;;;;22.25;12.32;;;;;;;;;;5011142;28;92756;-66
2022/11/20 06:31:20;;;;;;;22.65;12.88;;;;;;;;;;5026483;28;93327;-66
2022/11/20 06:33:46;;;;;;;22.33;12.18;;;;;;;;;;5027788;28;91689;-66
2022/11/20 06:36:14;;;;;;;20.08;12.23;;;;;;;;;;5017104;28;93843;-66
2022/11/20 06:38:40;;;;;;;19.48;12.35;;;;;;;;;;5014729;28;93305;-66
2022/11/20 06:41:10;;;;;;;24.83;13.23;;;;;;;;;;5012341;28;96513;-66
2022/11/20 06:43:36;;;;;;;28.95;13.45;;;;;;;;;;5020170;28;94457;-67
2022/11/20 06:46:02;;;;;;;23.70;14.25;;;;;;;;;;5008611;27;95221;-66
2022/11/20 06:48:29;;;;;;;21.85;12.60;;;;;;;;;;5010413;28;92539;-67
2022/11/20 06:50:56;;;;;;;20.60;12.52;;;;;;;;;;5010306;28;93698;-66
2022/11/20 06:53:23;;;;;;;23.85;12.40;;;;;;;;;;5016035;28;93381;-67
2022/11/20 06:55:49;;;;;;;27.55;12.60;;;;;;;;;;5013572;28;93401;-67
2022/11/20 06:58:16;;;;;;;19.27;11.50;;;;;;;;;;5013972;28;92915;-68
2022/11/20 07:00:42;;;;;;;19.17;12.15;;;;;;;;;;5015624;27;92548;-66
2022/11/20 07:03:10;;;;;;;18.63;11.15;;;;;;;;;;5016633;28;95947;-66
2022/11/20 07:05:38;;;;;;;23.67;13.60;;;;;;;;;;5008704;27;96735;-66
2022/11/20 07:08:04;;;;;;;22.52;12.57;;;;;;;;;;5034469;27;92357;-67
2022/11/20 07:10:31;;;;;;;25.52;12.13;;;;;;;;;;5014879;27;94010;-66
2022/11/20 07:12:57;;;;;;;17.35;11.70;;;;;;;;;;5013985;28;93423;-67
2022/11/20 07:15:24;;;;;;;20.25;11.77;;;;;;;;;;5017327;28;93846;-66
2022/11/20 07:17:51;;;;;;;20.75;12.20;;;;;;;;;;5014054;28;93780;-67
2022/11/20 07:20:18;;;;;;;19.48;11.75;;;;;;;;;;5010292;28;93795;-69
2022/11/20 07:22:44;;;;;;;23.50;12.68;;;;;;;;;;5014694;28;95203;-66
2022/11/20 07:25:10;;;;;;;21.80;12.43;;;;;;;;;;5026895;28;92471;-66
2022/11/20 07:27:37;;;;;;;20.77;12.85;;;;;;;;;;5015243;28;93352;-67
2022/11/20 07:30:04;;;;;;;27.88;13.32;;;;;;;;;;5020047;28;94899;-67
2022/11/20 07:32:30;;;;;;;23.40;12.57;;;;;;;;;;5018716;28;93777;-65
2022/11/20 07:34:56;;;;;;;37.40;12.45;;;;;;;;;;5017606;27;92576;-65
2022/11/20 07:37:22;;;;;;;21.27;12.80;;;;;;;;;;5016016;28;93182;-67
2022/11/20 07:39:49;;;;;;;23.15;11.93;;;;;;;;;;5028588;27;92440;-64
2022/11/20 07:42:15;;;;;;;20.52;12.48;;;;;;;;;;5014633;28;93265;-67
2022/11/20 07:44:41;;;;;;;25.27;14.57;;;;;;;;;;5013998;28;93378;-64
2022/11/20 07:47:07;;;;;;;24.92;15.27;;;;;;;;;;5020494;28;91870;-66
2022/11/20 07:49:34;;;;;;;30.38;16.80;;;;;;;;;;5002261;28;92784;-65
2022/11/20 07:52:00;;;;;;;29.75;16.58;;;;;;;;;;5013268;28;94454;-65
2022/11/20 07:54:30;;;;;;;34.08;18.63;;;;;;;;;;5008727;28;95162;-65
2022/11/20 07:56:56;;;;;;;33.42;18.52;;;;;;;;;;5024860;28;95877;-64
2022/11/20 07:59:22;;;;;;;34.42;18.48;;;;;;;;;;5019076;28;94072;-64
2022/11/20 08:01:49;;;;;;;28.02;18.35;;;;;;;;;;5011012;28;96101;-64
2022/11/20 08:04:16;;;;;;;28.08;16.40;;;;;;;;;;5020673;27;94663;-62
2022/11/20 08:06:42;;;;;;;30.60;16.52;;;;;;;;;;5016775;28;93910;-63
2022/11/20 08:09:09;;;;;;;28.27;15.55;;;;;;;;;;5021082;28;94250;-64
2022/11/20 08:14:20;;;;;;;26.65;15.52;;;;;;;;;;5012413;28;93961;-64
2022/11/20 08:16:47;;;;;;;24.30;14.88;;;;;;;;;;5020536;28;93518;-65
2022/11/20 08:19:14;;;;;;;36.80;16.40;;;;;;;;;;5026949;27;97470;-63
2022/11/20 08:21:41;;;;;;;28.08;16.23;;;;;;;;;;5009656;28;95830;-62
2022/11/20 08:24:07;;;;;;;27.48;16.48;;;;;;;;;;5015024;28;93435;-65
2022/11/20 08:26:35;;;;;;;28.05;16.45;;;;;;;;;;5010868;28;93602;-63
2022/11/20 08:29:01;;;;;;;27.63;15.25;;;;;;;;;;5007784;28;93976;-67
2022/11/20 08:31:27;;;;;;;26.88;15.77;;;;;;;;;;5008978;28;96279;-63
2022/11/20 08:33:54;;;;;;;29.38;16.40;;;;;;;;;;5028168;28;92648;-63
2022/11/20 08:36:21;;;;;;;30.63;17.38;;;;;;;;;;5014764;28;93378;-64
2022/11/20 08:38:51;;;;;;;23.73;15.27;;;;;;;;;;5018146;28;93902;-64
2022/11/20 08:41:30;;;;;;;31.75;16.55;;;;;;;;;;5016529;28;92636;-62
2022/11/20 08:43:58;;;;;;;28.58;16.67;;;;;;;;;;5023743;28;95918;-63
2022/11/20 08:46:25;;;;;;;32.70;18.05;;;;;;;;;;5014260;28;92477;-64
2022/11/20 08:48:51;;;;;;;34.90;19.40;;;;;;;;;;5012880;28;93226;-66
2022/11/20 08:51:18;;;;;;;36.33;21.33;;;;;;;;;;5013001;28;93697;-65
2022/11/20 08:53:44;;;;;;;36.55;19.13;;;;;;;;;;5020025;28;93710;-63
2022/11/20 08:56:11;;;;;;;34.20;18.90;;;;;;;;;;5026762;27;93512;-64
2022/11/20 08:58:38;;;;;;;39.53;22.38;;;;;;;;;;5003119;28;93624;-64
2022/11/20 09:01:24;;;;;;;35.88;18.80;;;;;;;;;;5014141;28;92326;-63
2022/11/20 09:03:51;;;;;;;37.85;19.95;;;;;;;;;;5015075;28;92502;-63
2022/11/20 09:06:17;;;;;;;29.00;17.85;;;;;;;;;;5015407;28;92442;-63
2022/11/20 09:08:44;;;;;;;31.80;19.13;;;;;;;;;;5027314;28;94896;-64
2022/11/20 09:11:10;;;;;;;27.27;16.30;;;;;;;;;;5022851;27;93467;-64
2022/11/20 09:13:37;;;;;;;31.98;16.38;;;;;;;;;;5013893;28;92938;-63
2022/11/20 09:16:05;;;;;;;28.63;16.25;;;;;;;;;;5012670;28;92390;-63
2022/11/20 09:18:32;;;;;;;23.90;14.75;;;;;;;;;;5012751;28;94085;-64
2022/11/20 09:20:59;;;;;;;27.17;15.70;;;;;;;;;;5012539;28;92438;-64
2022/11/20 09:23:26;;;;;;;31.58;18.55;;;;;;;;;;5016605;28;93907;-64
2022/11/20 09:25:55;;;;;;;28.00;15.85;;;;;;;;;;5035823;28;92671;-64
2022/11/20 09:28:21;;;;;;;33.83;17.13;;;;;;;;;;5030580;27;92577;-64
2022/11/20 09:30:47;;;;;;;30.40;17.77;;;;;;;;;;5024884;27;93709;-64
2022/11/20 09:33:14;;;;;;;31.90;19.92;;;;;;;;;;5008963;28;94918;-65
2022/11/20 09:35:40;;;;;;;34.25;18.17;;;;;;;;;;5012342;28;93929;-64
2022/11/20 09:38:07;;;;;;;29.48;16.80;;;;;;;;;;5013596;28;93908;-66
2022/11/20 09:40:34;;;;;;;31.15;17.52;;;;;;;;;;5008208;28;93062;-64
2022/11/20 09:43:10;;;;;;;29.67;18.10;;;;;;;;;;5032326;27;93451;-65
2022/11/20 09:45:39;;;;;;;30.77;18.98;;;;;;;;;;5026481;28;93418;-65
2022/11/20 09:48:18;;;;;;;30.92;17.63;;;;;;;;;;5014801;28;93270;-65
2022/11/20 09:51:03;;;;;;;32.92;20.00;;;;;;;;;;5026475;28;92648;-65
2022/11/20 09:53:41;;;;;;;28.75;17.90;;;;;;;;;;5035914;27;92443;-65
2022/11/20 09:56:09;;;;;;;32.58;18.70;;;;;;;;;;5015831;27;94052;-64
2022/11/20 09:58:39;;;;;;;33.80;18.80;;;;;;;;;;5021974;27;95783;-64
2022/11/20 10:01:10;;;;;;;36.63;19.52;;;;;;;;;;5028994;27;92427;-64
2022/11/20 10:03:39;;;;;;;30.75;18.55;;;;;;;;;;5023193;28;95685;-65
2022/11/20 10:06:10;;;;;;;35.78;19.33;;;;;;;;;;5028734;27;93647;-66
2022/11/20 10:08:40;;;;;;;30.20;19.25;;;;;;;;;;5037543;27;92333;-66
2022/11/20 10:11:32;;;;;;;34.88;19.15;;;;;;;;;;5014764;28;93402;-65
2022/11/20 10:14:27;;;;;;;29.17;17.92;;;;;;;;;;5034602;27;92588;-65
2022/11/20 10:16:53;;;;;;;35.75;19.13;;;;;;;;;;4970726;28;93511;-65
2022/11/20 10:19:38;;;;;;;47.65;24.80;;;;;;;;;;4974395;28;94307;-66
2022/11/20 10:22:14;;;;;;;28.52;17.55;;;;;;;;;;4973600;28;93314;-66
2022/11/20 10:24:59;;;;;;;29.35;17.13;;;;;;;;;;4970647;28;94895;-65
2022/11/20 10:27:48;;;;;;;32.53;18.15;;;;;;;;;;4972500;28;94494;-65
2022/11/20 10:30:16;;;;;;;31.38;16.73;;;;;;;;;;4974217;28;92562;-64
2022/11/20 10:32:45;;;;;;;28.48;17.73;;;;;;;;;;4974950;28;93588;-65
2022/11/20 10:35:17;;;;;;;31.15;18.05;;;;;;;;;;4972621;28;92525;-64
2022/11/20 10:37:46;;;;;;;28.10;17.13;;;;;;;;;;4972986;28;95631;-65
2022/11/20 10:40:21;;;;;;;32.55;19.08;;;;;;;;;;4971772;28;93560;-65
2022/11/20 10:42:55;;;;;;;48.45;20.40;;;;;;;;;;4971549;28;91871;-65
2022/11/20 10:45:33;;;;;;;31.70;19.50;;;;;;;;;;4973530;28;94358;-65
2022/11/20 10:48:34;;;;;;;33.97;19.40;;;;;;;;;;4953946;28;94113;-65
2022/11/20 10:51:09;;;;;;;36.30;20.75;;;;;;;;;;4912879;28;94911;-65
2022/11/20 10:53:38;;;;;;;39.53;20.33;;;;;;;;;;4923957;28;95373;-65
2022/11/20 10:56:07;;;;;;;28.15;17.85;;;;;;;;;;4937840;28;94935;-65
2022/11/20 10:58:52;;;;;;;34.88;20.95;;;;;;;;;;4917660;28;93211;-65
2022/11/20 11:01:21;;;;;;;39.10;20.55;;;;;;;;;;4949040;28;94310;-65
2022/11/20 11:03:48;;;;;;;39.25;22.88;;;;;;;;;;4933026;28;92599;-66
2022/11/20 11:06:34;;;;;;;42.97;23.83;;;;;;;;;;4934289;28;94265;-65
2022/11/20 11:09:03;;;;;;;40.97;24.05;;;;;;;;;;4920383;28;92763;-65
2022/11/20 11:11:31;;;;;;;38.90;22.63;;;;;;;;;;4935253;28;93201;-64
2022/11/20 11:14:24;;;;;;;38.00;22.08;;;;;;;;;;4935452;28;93799;-64
2022/11/20 11:16:50;;;;;;;41.45;23.27;;;;;;;;;;4936120;28;95880;-63
2022/11/20 11:19:17;;;;;;;42.25;25.27;;;;;;;;;;4937777;28;92526;-65
2022/11/20 11:21:54;;;;;;;35.97;22.10;;;;;;;;;;4933266;28;93506;-66
2022/11/20 11:24:25;;;;;;;41.88;22.90;;;;;;;;;;4961142;28;93546;-67
2022/11/20 11:27:13;;;;;;;38.53;22.40;;;;;;;;;;4994621;28;93002;-65
2022/11/20 11:29:42;;;;;;;47.58;25.15;;;;;;;;;;5012099;28;93947;-65
2022/11/20 11:32:12;;;;;;;45.08;25.27;;;;;;;;;;5033803;27;92417;-65
2022/11/20 11:34:38;;;;;;;46.78;26.02;;;;;;;;;;5029817;27;93293;-65
2022/11/20 11:37:05;;;;;;;42.50;26.10;;;;;;;;;;5017373;28;93437;-65
2022/11/20 11:39:32;;;;;;;50.78;28.50;;;;;;;;;;5012077;28;92476;-65
2022/11/20 11:42:00;;;;;;;54.45;28.60;;;;;;;;;;5018728;28;94861;-65
2022/11/20 11:47:21;;;;;;;43.95;24.52;;;;;;;;;;5013621;27;93821;-64
2022/11/20 11:49:47;;;;;;;46.22;26.27;;;;;;;;;;5013699;28;93747;-66
2022/11/20 11:52:18;;;;;;;46.42;27.80;;;;;;;;;;5012418;28;92452;-65
2022/11/20 11:54:44;;;;;;;;;;;;;;;;;;5015321;28;93880;-65
2022/11/20 11:57:22;;;;;;;42.20;23.80;;;;;;;;;;5016328;28;124501;-65
2022/11/20 11:59:54;;;;;;;47.65;25.23;;;;;;;;;;5014269;28;91701;-65
2022/11/20 12:02:29;;;;;;;42.67;24.65;;;;;;;;;;5017028;28;93082;-65
2022/11/20 12:04:59;;;;;;;43.25;24.60;;;;;;;;;;5030284;28;95066;-65
2022/11/20 12:07:28;;;;;;;55.97;29.25;;;;;;;;;;5012624;28;94911;-65
2022/11/20 12:10:21;;;;;;;49.63;27.23;;;;;;;;;;5013761;28;93744;-65
2022/11/20 12:12:49;;;;;;;49.28;26.48;;;;;;;;;;5023597;28;92518;-65
2022/11/20 12:15:25;;;;;;;51.13;25.20;;;;;;;;;;5030504;27;92443;-65
2022/11/20 12:17:52;;;;;;;50.20;25.55;;;;;;;;;;5014533;28;93386;-65
2022/11/20 12:20:19;;;;;;;42.33;25.40;;;;;;;;;;5010761;28;92929;-65
2022/11/20 12:22:56;;;;;;;42.30;23.52;;;;;;;;;;5010723;28;93336;-65
2022/11/20 12:25:30;;;;;;;38.08;23.65;;;;;;;;;;5017465;28;95751;-65
2022/11/20 12:28:17;;;;;;;41.97;25.10;;;;;;;;;;5015096;28;93814;-67
2022/11/20 12:31:08;;;;;;;45.58;25.63;;;;;;;;;;5008754;28;93631;-65
2022/11/20 12:33:40;;;;;;;44.92;25.23;;;;;;;;;;5009522;28;94894;-65
2022/11/20 12:36:12;;;;;;;47.33;26.27;;;;;;;;;;5010553;28;95775;-65
2022/11/20 12:38:41;;;;;;;45.35;25.38;;;;;;;;;;5015785;28;93473;-65
2022/11/20 12:41:14;;;;;;;43.95;25.38;;;;;;;;;;5017067;27;92460;-65
2022/11/20 12:46:51;;;;;;;49.35;27.08;;;;;;;;;;5011844;28;93450;-65
2022/11/20 12:49:17;;;;;;;49.60;25.88;;;;;;;;;;5013913;28;92475;-65
2022/11/20 12:52:07;;;;;;;47.85;27.73;;;;;;;;;;5013328;28;92469;-65
2022/11/20 12:54:36;;;;;;;42.50;24.88;;;;;;;;;;5010648;28;92698;-65
2022/11/20 12:57:10;;;;;;;50.65;28.58;;;;;;;;;;5011913;28;93548;-66
2022/11/20 12:59:48;;;;;;;49.20;26.27;;;;;;;;;;5007021;28;95858;-66
2022/11/20 13:02:33;;;;;;;45.53;26.35;;;;;;;;;;5012342;28;92574;-65
2022/11/20 13:05:03;;;;;;;47.55;25.23;;;;;;;;;;5012454;28;93267;-66
2022/11/20 13:07:30;;;;;;;48.25;27.33;;;;;;;;;;5010735;28;94817;-66
2022/11/20 13:09:58;;;;;;;47.03;26.58;;;;;;;;;;5027458;28;92496;-64
2022/11/20 13:12:24;;;;;;;43.53;26.83;;;;;;;;;;5037261;27;94030;-64
2022/11/20 13:14:50;;;;;;;47.08;25.40;;;;;;;;;;5021092;27;92446;-64
2022/11/20 13:17:28;;;;;;;46.58;27.33;;;;;;;;;;5029054;28;94634;-64
2022/11/20 13:19:57;;;;;;;42.22;25.85;;;;;;;;;;5018596;27;93459;-64
2022/11/20 13:22:27;;;;;;;46.65;26.88;;;;;;;;;;5010617;28;92533;-66
2022/11/20 13:24:53;;;;;;;46.00;26.00;;;;;;;;;;5010100;28;95085;-64
2022/11/20 13:27:23;;;;;;;43.30;25.27;;;;;;;;;;5015774;28;93772;-64
2022/11/20 13:30:00;;;;;;;44.47;25.93;;;;;;;;;;5016103;28;92459;-64
2022/11/20 13:32:31;;;;;;;43.83;25.73;;;;;;;;;;5016227;28;93209;-64
2022/11/20 13:35:02;;;;;;;44.65;23.90;;;;;;;;;;5020276;28;94443;-65
2022/11/20 13:37:30;;;;;;;47.08;25.20;;;;;;;;;;5017160;28;93224;-64
2022/11/20 13:40:10;;;;;;;46.92;27.50;;;;;;;;;;5015107;28;93600;-64
2022/11/20 13:42:38;;;;;;;45.53;25.15;;;;;;;;;;5013416;28;92899;-66
2022/11/20 13:45:09;;;;;;;47.63;26.15;;;;;;;;;;5016314;28;92493;-63
2022/11/20 13:47:35;;;;;;;45.67;27.95;;;;;;;;;;5017034;28;93596;-65
2022/11/20 13:50:03;;;;;;;46.67;26.30;;;;;;;;;;5011137;28;94901;-64
2022/11/20 13:52:30;;;;;;;49.65;27.00;;;;;;;;;;5014331;28;95659;-63
2022/11/20 13:54:56;;;;;;;52.70;28.35;;;;;;;;;;5016528;28;93453;-64
2022/11/20 13:57:33;;;;;;;49.72;27.70;;;;;;;;;;5019341;28;92704;-65
2022/11/20 14:00:19;;;;;;;45.22;24.48;;;;;;;;;;5008149;28;94802;-65
2022/11/20 14:02:52;;;;;;;51.65;27.63;;;;;;;;;;5016230;28;92474;-63
2022/11/20 14:05:21;;;;;;;50.28;27.10;;;;;;;;;;5017180;28;95241;-65
2022/11/20 14:07:48;;;;;;;47.22;26.38;;;;;;;;;;5017063;28;93105;-63
2022/11/20 14:10:25;;;;;;;50.90;26.63;;;;;;;;;;5020008;28;92443;-64
2022/11/20 14:12:57;;;;;;;51.50;27.52;;;;;;;;;;5016754;28;93283;-62
2022/11/20 14:15:31;;;;;;;51.33;27.48;;;;;;;;;;5023938;28;96256;-63
2022/11/20 14:17:58;;;;;;;51.90;25.77;;;;;;;;;;5016518;28;92369;-63
2022/11/20 14:20:26;;;;;;;60.35;28.95;;;;;;;;;;5018323;28;93247;-65
2022/11/20 14:22:53;;;;;;;51.55;26.50;;;;;;;;;;5014546;28;92472;-65
2022/11/20 14:25:26;;;;;;;49.60;25.58;;;;;;;;;;5015126;28;93072;-64
2022/11/20 14:27:54;;;;;;;48.95;26.45;;;;;;;;;;5013882;28;93432;-64
2022/11/20 14:30:22;;;;;;;55.83;27.38;;;;;;;;;;5020714;28;92434;-64
2022/11/20 14:32:48;;;;;;;53.33;26.52;;;;;;;;;;5034421;27;93143;-64
2022/11/20 14:35:18;;;;;;;51.40;26.98;;;;;;;;;;5013759;28;93258;-65
2022/11/20 14:37:45;;;;;;;55.65;28.42;;;;;;;;;;5015395;28;92399;-65
2022/11/20 14:40:29;;;;;;;61.65;29.48;;;;;;;;;;5014984;28;94954;-64